Time;durP1;ratioP1;P1;durP2;ratioP2;P2;SDS_P1;SDS_P2;PMS_P1;PMS_P2;Temp;Humidity;BMP_temperature;BMP_pressure;BME280_temperature;BME280_humidity;BME280_pressure;Samples;Min_cycle;Max_cycle;Signal;HPM_P1;HPM_P2
2024/04/16 00:02:09;;;;;;;1999.90;999.90;;;7.80;82.40;;;;;;6382113;22;20227;-78
2024/04/16 00:04:35;;;;;;;1999.90;999.90;;;7.80;82.40;;;;;;6381669;22;20223;-78
2024/04/16 00:07:01;;;;;;;1999.90;999.90;;;7.80;82.40;;;;;;6380862;22;20250;-78
2024/04/16 00:09:26;;;;;;;1999.90;999.90;;;7.80;82.20;;;;;;6381294;22;20239;-78
2024/04/16 00:11:52;;;;;;;1999.90;999.90;;;7.80;82.20;;;;;;6381422;22;20757;-78
2024/04/16 00:14:18;;;;;;;1999.90;999.90;;;7.80;82.20;;;;;;6425506;22;20220;-78
2024/04/16 00:16:44;;;;;;;1999.90;999.90;;;7.80;82.20;;;;;;6380750;22;20562;-79
2024/04/16 00:19:10;;;;;;;1999.90;999.90;;;7.70;82.20;;;;;;6382077;22;20263;-78
2024/04/16 00:21:35;;;;;;;1999.90;999.90;;;7.80;82.20;;;;;;6381573;22;20699;-78
2024/04/16 00:24:01;;;;;;;1999.90;999.90;;;7.80;82.00;;;;;;6380996;22;20259;-78
2024/04/16 00:26:27;;;;;;;1999.90;999.90;;;7.70;82.00;;;;;;6423325;22;20531;-77
2024/04/16 00:28:53;;;;;;;1999.90;999.90;;;7.70;82.00;;;;;;6380650;22;20235;-79
2024/04/16 00:31:18;;;;;;;1999.90;999.90;;;7.60;82.10;;;;;;6424254;22;20326;-78
2024/04/16 00:33:44;;;;;;;1999.90;999.90;;;7.50;82.10;;;;;;6380279;22;20238;-78
2024/04/16 00:36:09;;;;;;;1999.90;999.90;;;7.50;82.00;;;;;;6423740;22;20312;-77
2024/04/16 00:38:35;;;;;;;1999.90;999.90;;;7.40;81.80;;;;;;6424524;22;20277;-78
2024/04/16 00:41:01;;;;;;;1999.90;999.90;;;7.30;81.50;;;;;;6424409;22;20223;-78
2024/04/16 00:43:26;;;;;;;1999.90;999.90;;;7.20;81.50;;;;;;6424326;22;20777;-77
2024/04/16 00:45:58;;;;;;;1999.90;999.90;;;7.20;81.50;;;;;;6380815;22;20686;-77
2024/04/16 00:48:25;;;;;;;1999.90;999.90;;;7.00;81.60;;;;;;6423823;22;20356;-78
2024/04/16 00:50:51;;;;;;;1999.90;999.90;;;7.10;81.70;;;;;;6425017;22;20223;-78
2024/04/16 00:53:18;;;;;;;1999.90;999.90;;;7.00;81.70;;;;;;6424009;22;20224;-77
2024/04/16 00:55:46;;;;;;;1999.90;999.90;;;7.00;81.70;;;;;;6424769;22;20226;-77
2024/04/16 00:58:15;;;;;;;1999.90;999.90;;;6.90;81.60;;;;;;6423251;22;20282;-78
2024/04/16 01:00:41;;;;;;;1999.90;999.90;;;6.90;81.60;;;;;;6380704;22;20385;-77
2024/04/16 01:03:07;;;;;;;1999.90;999.90;;;6.90;81.70;;;;;;6424332;22;20231;-77
2024/04/16 01:05:33;;;;;;;1999.90;999.90;;;6.80;81.80;;;;;;6424016;22;20337;-77
2024/04/16 01:08:00;;;;;;;1999.90;999.90;;;6.60;81.90;;;;;;6423398;22;20250;-78
2024/04/16 01:10:25;;;;;;;1999.90;999.90;;;6.60;82.10;;;;;;6424399;22;20230;-77
2024/04/16 01:12:51;;;;;;;1999.90;999.90;;;6.60;82.20;;;;;;6423874;22;20223;-78
2024/04/16 01:15:17;;;;;;;1999.90;999.90;;;6.60;82.20;;;;;;6424240;22;20224;-77
2024/04/16 01:17:43;;;;;;;1999.90;999.90;;;6.60;82.20;;;;;;6423367;22;20263;-77
2024/04/16 01:20:09;;;;;;;1999.90;999.90;;;6.70;82.30;;;;;;6380408;22;20227;-77
2024/04/16 01:22:35;;;;;;;926.70;384.60;;;6.70;82.30;;;;;;6424247;22;20219;-77
2024/04/16 01:25:01;;;;;;;1693.70;722.70;;;6.70;82.30;;;;;;6424418;22;20231;-77
2024/04/16 01:27:26;;;;;;;1999.90;999.90;;;6.70;82.20;;;;;;6423021;22;20322;-78
2024/04/16 01:29:52;;;;;;;1454.53;684.93;;;6.70;82.30;;;;;;6424172;22;20238;-78
2024/04/16 01:32:18;;;;;;;1999.90;999.90;;;6.60;82.20;;;;;;6423916;22;20227;-78
2024/04/16 01:34:44;;;;;;;1439.17;689.63;;;6.60;82.30;;;;;;6424223;22;20625;-80
2024/04/16 01:37:09;;;;;;;1999.90;999.90;;;6.60;82.40;;;;;;6379194;22;20254;-77
2024/04/16 01:39:35;;;;;;;1999.90;999.90;;;6.60;82.40;;;;;;6380351;22;20337;-77
2024/04/16 01:42:01;;;;;;;1999.90;999.90;;;6.60;82.40;;;;;;6423874;22;20222;-78
2024/04/16 01:44:26;;;;;;;1999.90;999.90;;;6.60;83.00;;;;;;6424085;22;20226;-77
2024/04/16 01:46:52;;;;;;;1999.90;999.90;;;6.60;82.30;;;;;;6380671;22;20223;-78
2024/04/16 01:49:19;;;;;;;1999.90;999.90;;;6.70;82.30;;;;;;6426038;22;20242;-77
2024/04/16 01:51:44;;;;;;;1999.90;999.90;;;6.70;82.20;;;;;;6425940;22;20269;-78
2024/04/16 01:54:10;;;;;;;1999.90;999.90;;;6.70;82.20;;;;;;6426346;22;20572;-78
2024/04/16 01:56:35;;;;;;;1999.90;999.90;;;6.80;82.20;;;;;;6381184;22;20223;-79
2024/04/16 01:59:02;;;;;;;1999.90;999.90;;;6.80;82.10;;;;;;6381951;22;20243;-78
2024/04/16 02:01:27;;;;;;;1999.90;999.90;;;6.90;82.10;;;;;;6426105;22;20223;-77
2024/04/16 02:03:53;;;;;;;1999.90;999.90;;;6.90;82.10;;;;;;6426482;22;20227;-78
2024/04/16 02:06:19;;;;;;;1999.90;999.90;;;6.90;82.10;;;;;;6425142;22;20266;-79
2024/04/16 02:08:44;;;;;;;1999.90;999.90;;;6.90;82.10;;;;;;6382080;22;20462;-78
2024/04/16 02:11:10;;;;;;;1999.90;999.90;;;6.90;82.10;;;;;;6426431;22;20249;-78
2024/04/16 02:13:36;;;;;;;1999.90;999.90;;;6.90;82.10;;;;;;6425622;22;20223;-77
2024/04/16 02:16:02;;;;;;;1999.90;999.90;;;6.90;82.20;;;;;;6424945;22;20266;-78
2024/04/16 02:18:28;;;;;;;1999.90;999.90;;;6.90;82.20;;;;;;6426056;22;20231;-78
2024/04/16 02:20:53;;;;;;;1999.90;999.90;;;6.90;82.30;;;;;;6426010;22;20222;-78
2024/04/16 02:23:19;;;;;;;1999.90;999.90;;;6.90;82.30;;;;;;6382097;22;20254;-78
2024/04/16 02:25:49;;;;;;;1999.90;999.90;;;6.90;82.20;;;;;;6425659;22;20266;-78
2024/04/16 02:28:15;;;;;;;1508.63;697.57;;;6.90;82.40;;;;;;6380800;22;20247;-77
2024/04/16 02:30:41;;;;;;;1999.90;999.90;;;6.90;82.40;;;;;;6425622;22;20267;-78
2024/04/16 02:33:11;;;;;;;1999.90;999.90;;;6.90;82.40;;;;;;6425349;22;20219;-78
2024/04/16 02:35:37;;;;;;;1999.90;999.90;;;6.90;82.50;;;;;;6425685;22;21025;-78
2024/04/16 02:38:02;;;;;;;1999.90;999.90;;;6.90;82.60;;;;;;6424253;22;20266;-77
2024/04/16 02:40:28;;;;;;;1999.90;999.90;;;6.90;82.80;;;;;;6381790;22;20227;-77
2024/04/16 02:42:54;;;;;;;1999.90;999.90;;;6.90;82.80;;;;;;6425490;22;20227;-78
2024/04/16 02:45:20;;;;;;;1014.40;208.23;;;6.90;82.90;;;;;;6425427;22;20690;-78
2024/04/16 02:47:46;;;;;;;1734.57;729.90;;;7.00;83.10;;;;;;6424129;22;20721;-77
2024/04/16 02:50:11;;;;;;;1999.90;999.90;;;6.90;83.20;;;;;;6425424;22;20219;-78
2024/04/16 02:52:37;;;;;;;1999.90;999.90;;;6.90;83.50;;;;;;6425196;22;20270;-79
2024/04/16 02:55:05;;;;;;;1999.90;999.90;;;6.90;83.70;;;;;;6425934;22;20302;-78
2024/04/16 02:57:30;;;;;;;1579.93;710.50;;;6.90;83.80;;;;;;6423905;22;20220;-78
2024/04/16 02:59:56;;;;;;;1999.90;999.90;;;6.90;84.00;;;;;;6425319;22;20683;-78
2024/04/16 03:02:22;;;;;;;1999.90;999.90;;;6.90;84.20;;;;;;6381582;22;20762;-77
2024/04/16 03:04:47;;;;;;;1440.33;472.23;;;6.90;84.30;;;;;;6425271;22;20216;-77
2024/04/16 03:07:13;;;;;;;1999.90;999.90;;;7.00;84.50;;;;;;6424015;22;20230;-76
2024/04/16 03:09:38;;;;;;;1999.90;999.90;;;6.90;84.50;;;;;;6425325;22;20322;-78
2024/04/16 03:12:04;;;;;;;1999.90;999.90;;;7.00;84.60;;;;;;6425347;22;20691;-78
2024/04/16 03:14:30;;;;;;;1999.90;999.90;;;7.10;84.60;;;;;;6381318;22;20228;-78
2024/04/16 03:16:56;;;;;;;1999.90;999.90;;;7.10;84.50;;;;;;6380455;22;20257;-77
2024/04/16 03:19:21;;;;;;;1999.90;999.90;;;7.20;84.50;;;;;;6381434;22;20287;-78
2024/04/16 03:21:47;;;;;;;1999.90;807.17;;;7.20;84.40;;;;;;6425321;22;20216;-78
2024/04/16 03:24:13;;;;;;;1140.33;408.73;;;7.20;84.50;;;;;;6425081;22;20269;-78
2024/04/16 03:26:39;;;;;;;1999.90;999.90;;;7.10;84.60;;;;;;6424184;22;20236;-76
2024/04/16 03:29:04;;;;;;;1999.90;999.90;;;7.10;84.60;;;;;;6381199;22;20698;-78
2024/04/16 03:31:30;;;;;;;1999.90;999.90;;;7.10;84.60;;;;;;6425327;22;20600;-78
2024/04/16 03:33:55;;;;;;;1999.90;999.90;;;7.10;84.50;;;;;;6425098;22;20222;-78
2024/04/16 03:36:21;;;;;;;1999.90;999.90;;;7.00;84.50;;;;;;6424185;22;20256;-77
2024/04/16 03:38:47;;;;;;;1999.90;999.90;;;7.00;84.50;;;;;;6424905;22;20231;-78
2024/04/16 03:41:12;;;;;;;1999.90;999.90;;;7.00;84.40;;;;;;6381302;22;20299;-77
2024/04/16 03:43:38;;;;;;;1999.90;999.90;;;7.00;84.30;;;;;;6425048;22;20215;-78
2024/04/16 03:46:04;;;;;;;1999.90;999.90;;;7.00;84.20;;;;;;6380252;22;20256;-78
2024/04/16 03:48:30;;;;;;;884.30;373.40;;;7.00;84.20;;;;;;6424796;22;20235;-78
2024/04/16 03:50:55;;;;;;;1999.90;999.90;;;7.00;84.20;;;;;;6381104;22;20233;-77
2024/04/16 03:53:21;;;;;;;1999.90;999.90;;;7.00;84.20;;;;;;6424918;22;20222;-77
2024/04/16 03:55:47;;;;;;;1999.90;999.90;;;6.90;84.30;;;;;;6425110;22;20293;-77
2024/04/16 03:58:13;;;;;;;1021.20;405.47;;;6.90;84.70;;;;;;6423446;22;20239;-78
2024/04/16 04:03:23;;;;;;;1712.47;542.67;;;6.90;85.00;;;;;;6424428;22;20753;-78
2024/04/16 04:05:49;;;;;;;1999.90;671.47;;;7.00;85.00;;;;;;6424972;22;20239;-77
2024/04/16 04:08:15;;;;;;;1999.90;999.90;;;7.10;85.00;;;;;;6423100;22;20550;-77
2024/04/16 04:10:44;;;;;;;1613.57;709.77;;;7.10;85.00;;;;;;6381169;22;20227;-77
2024/04/16 04:13:09;;;;;;;1695.43;730.97;;;7.10;85.10;;;;;;6424781;22;20282;-78
2024/04/16 04:15:38;;;;;;;1999.90;999.90;;;7.10;85.40;;;;;;6425036;22;20286;-77
2024/04/16 04:18:05;;;;;;;1999.90;999.90;;;7.10;85.70;;;;;;6423412;22;20262;-78
2024/04/16 04:20:30;;;;;;;1504.33;690.33;;;7.10;85.80;;;;;;6425139;22;20223;-78
2024/04/16 04:22:56;;;;;;;1139.90;183.20;;;7.10;85.80;;;;;;6380766;22;20675;-77
2024/04/16 04:25:22;;;;;;;1999.90;999.90;;;7.10;85.90;;;;;;6381291;22;20227;-78
2024/04/16 04:27:49;;;;;;;1999.90;999.90;;;7.10;86.00;;;;;;6380561;22;20256;-77
2024/04/16 04:30:15;;;;;;;1799.87;725.90;;;7.10;86.10;;;;;;6381458;22;20276;-77
2024/04/16 04:32:40;;;;;;;1999.90;999.90;;;7.10;86.20;;;;;;6424534;22;20227;-77
2024/04/16 04:35:09;;;;;;;1141.80;412.57;;;7.10;86.30;;;;;;6424192;22;20231;-77
2024/04/16 04:37:35;;;;;;;1540.73;704.63;;;7.10;86.30;;;;;;6423805;22;20308;-78
2024/04/16 04:40:00;;;;;;;1999.90;999.90;;;7.20;86.30;;;;;;6424284;22;20234;-78
2024/04/16 04:42:26;;;;;;;1178.80;394.97;;;7.20;86.30;;;;;;6380982;22;20219;-78
2024/04/16 04:44:52;;;;;;;1999.90;999.90;;;7.20;86.30;;;;;;6380960;22;20235;-77
2024/04/16 04:47:20;;;;;;;1999.90;999.90;;;7.20;86.40;;;;;;6423233;22;20218;-77
2024/04/16 04:49:47;;;;;;;1999.90;999.90;;;7.30;86.40;;;;;;6425195;22;20757;-77
2024/04/16 04:52:13;;;;;;;1999.90;999.90;;;7.30;86.40;;;;;;6424731;22;20683;-77
2024/04/16 04:54:39;;;;;;;1999.90;999.90;;;7.30;86.40;;;;;;6425152;22;20302;-78
2024/04/16 04:57:05;;;;;;;1651.87;707.20;;;7.30;86.30;;;;;;6423650;22;20519;-79
2024/04/16 04:59:31;;;;;;;1999.90;999.90;;;7.40;86.30;;;;;;6424694;22;20227;-78
2024/04/16 05:01:56;;;;;;;1999.90;999.90;;;7.40;86.30;;;;;;6424106;22;20219;-77
2024/04/16 05:04:22;;;;;;;1999.90;999.90;;;7.40;86.40;;;;;;6424818;22;20254;-77
2024/04/16 05:06:48;;;;;;;1504.70;693.27;;;7.40;86.40;;;;;;6380043;22;20242;-77
2024/04/16 05:09:13;;;;;;;1999.90;999.90;;;7.50;86.40;;;;;;6424544;22;20917;-77
2024/04/16 05:11:39;;;;;;;1999.90;999.90;;;7.50;86.40;;;;;;6380658;22;20581;-78
2024/04/16 05:14:09;;;;;;;1388.83;681.37;;;7.50;86.50;;;;;;6424833;22;20261;-77
2024/04/16 05:16:36;;;;;;;1521.63;692.87;;;7.50;86.50;;;;;;6381871;22;20255;-79
2024/04/16 05:19:03;;;;;;;1441.83;678.80;;;7.50;86.60;;;;;;6427663;22;20305;-80
2024/04/16 05:21:29;;;;;;;1999.90;999.90;;;7.50;86.60;;;;;;6427706;22;20563;-80
2024/04/16 05:23:54;;;;;;;1999.90;999.90;;;7.50;86.70;;;;;;6383860;22;20265;-78
2024/04/16 05:26:22;;;;;;;1999.90;999.90;;;7.60;86.80;;;;;;6428547;22;20212;-77
2024/04/16 05:28:48;;;;;;;1999.90;999.90;;;7.60;86.90;;;;;;6432657;22;20232;-78
2024/04/16 05:31:15;;;;;;;1999.90;999.90;;;7.60;86.90;;;;;;6386531;22;20284;-77
2024/04/16 05:33:40;;;;;;;1748.83;723.60;;;7.60;86.90;;;;;;6426138;22;20223;-78
2024/04/16 05:36:06;;;;;;;1944.97;761.83;;;7.70;86.90;;;;;;6423507;22;20265;-77
2024/04/16 05:38:33;;;;;;;1999.90;999.90;;;7.70;87.00;;;;;;6424370;22;20274;-77
2024/04/16 05:40:59;;;;;;;1752.73;264.07;;;7.70;86.90;;;;;;6424286;22;20262;-77
2024/04/16 05:43:24;;;;;;;1688.53;720.67;;;7.70;87.00;;;;;;6380940;22;20223;-77
2024/04/16 05:45:50;;;;;;;960.00;379.50;;;7.70;87.00;;;;;;6425057;22;20282;-77
2024/04/16 05:48:16;;;;;;;1999.90;999.90;;;7.70;87.00;;;;;;6423591;22;20235;-78
2024/04/16 05:50:41;;;;;;;1999.90;999.90;;;7.80;87.00;;;;;;6381112;22;20238;-77
2024/04/16 05:53:07;;;;;;;1999.90;999.90;;;7.80;87.00;;;;;;6424832;22;20265;-77
2024/04/16 05:55:33;;;;;;;1999.90;999.90;;;7.80;87.00;;;;;;6424924;22;20265;-77
2024/04/16 05:57:58;;;;;;;1719.23;726.20;;;7.80;87.00;;;;;;6424286;22;20534;-78
2024/04/16 06:00:24;;;;;;;1999.90;999.90;;;7.80;87.00;;;;;;6381143;22;20532;-77
2024/04/16 06:02:49;;;;;;;1674.80;715.80;;;7.80;87.00;;;;;;6424585;22;20215;-76
2024/04/16 06:05:15;;;;;;;1999.90;999.90;;;7.90;87.10;;;;;;6381052;22;20318;-78
2024/04/16 06:07:41;;;;;;;1142.33;413.37;;;7.90;87.20;;;;;;6424191;22;20342;-77
2024/04/16 06:10:07;;;;;;;1999.90;999.90;;;8.00;87.30;;;;;;6424950;22;20223;-77
2024/04/16 06:12:33;;;;;;;1829.03;723.77;;;8.10;87.50;;;;;;6380912;22;20231;-78
2024/04/16 06:14:59;;;;;;;772.63;352.33;;;8.20;87.70;;;;;;6424895;22;20250;-77
2024/04/16 06:17:25;;;;;;;1999.90;999.90;;;8.40;87.70;;;;;;6423471;22;20723;-77
2024/04/16 06:19:50;;;;;;;1195.53;441.33;;;8.70;87.80;;;;;;6380810;22;20346;-77
2024/04/16 06:22:16;;;;;;;1972.67;329.40;;;9.00;87.70;;;;;;6424536;22;20223;-77
2024/04/16 06:24:42;;;;;;;1999.90;999.90;;;9.20;87.30;;;;;;6424688;22;20215;-77
2024/04/16 06:27:08;;;;;;;1999.90;999.90;;;9.50;87.00;;;;;;6423999;22;20219;-78
2024/04/16 06:29:35;;;;;;;1999.90;495.83;;;9.70;86.60;;;;;;6425186;22;20232;-78
2024/04/16 06:32:01;;;;;;;1999.90;999.90;;;9.80;86.00;;;;;;6427538;22;20220;-79
2024/04/16 06:34:26;;;;;;;1999.90;999.90;;;9.80;85.70;;;;;;6428188;22;20272;-77
2024/04/16 06:36:52;;;;;;;1999.90;999.90;;;9.90;85.40;;;;;;6426528;22;20219;-77
2024/04/16 06:39:18;;;;;;;1999.90;999.90;;;9.90;84.90;;;;;;6383791;22;20649;-77
2024/04/16 06:41:43;;;;;;;1999.90;999.90;;;9.90;84.80;;;;;;6427036;22;20331;-77
2024/04/16 06:44:09;;;;;;;1999.90;999.90;;;9.90;84.70;;;;;;6426514;22;20220;-77
2024/04/16 06:46:34;;;;;;;1999.90;999.90;;;9.80;84.40;;;;;;6424847;22;20215;-78
2024/04/16 06:49:00;;;;;;;1999.90;999.90;;;9.70;84.30;;;;;;6425987;22;20228;-77
2024/04/16 06:51:26;;;;;;;1999.90;999.90;;;9.70;84.40;;;;;;6430204;22;20326;-78
2024/04/16 06:53:51;;;;;;;1999.90;999.90;;;9.60;84.40;;;;;;6384866;22;20729;-79
2024/04/16 06:56:18;;;;;;;1999.90;999.90;;;9.60;84.40;;;;;;6428702;22;20220;-80
2024/04/16 06:58:44;;;;;;;1999.90;999.90;;;9.60;84.30;;;;;;6386234;22;20317;-79
2024/04/16 07:01:09;;;;;;;1999.90;999.90;;;9.60;84.40;;;;;;6429814;22;20219;-81
2024/04/16 07:03:35;;;;;;;1999.90;999.90;;;9.70;84.40;;;;;;6387822;22;20315;-79
2024/04/16 07:06:01;;;;;;;1999.90;999.90;;;9.70;84.20;;;;;;6430001;22;20212;-79
2024/04/16 07:08:27;;;;;;;1999.90;999.90;;;9.70;83.90;;;;;;6388248;22;20243;-79
2024/04/16 07:10:53;;;;;;;1999.90;999.90;;;9.60;83.80;;;;;;6432918;22;20226;-80
2024/04/16 07:13:19;;;;;;;1999.90;999.90;;;9.60;83.80;;;;;;6388187;22;20228;-80
2024/04/16 07:15:44;;;;;;;1999.90;999.90;;;9.50;83.80;;;;;;6430890;22;20224;-80
2024/04/16 07:18:10;;;;;;;1999.90;999.90;;;9.50;83.80;;;;;;6386543;22;20278;-79
2024/04/16 07:20:36;;;;;;;1999.90;999.90;;;9.50;84.10;;;;;;6431325;22;20268;-79
2024/04/16 07:23:04;;;;;;;1999.90;999.90;;;9.40;84.10;;;;;;6387415;22;20258;-80
2024/04/16 07:25:30;;;;;;;1999.90;999.90;;;9.40;84.30;;;;;;6431691;22;20676;-80
2024/04/16 07:27:56;;;;;;;1999.90;999.90;;;9.40;84.30;;;;;;6386370;22;20277;-80
2024/04/16 07:30:21;;;;;;;1999.90;999.90;;;9.30;84.30;;;;;;6387587;22;20259;-79
2024/04/16 07:32:47;;;;;;;1999.90;999.90;;;9.20;84.20;;;;;;6388248;22;20228;-80
2024/04/16 07:35:12;;;;;;;1704.43;393.53;;;9.10;84.40;;;;;;6430878;22;20667;-80
2024/04/16 07:37:38;;;;;;;1999.90;999.90;;;9.10;84.50;;;;;;6430296;22;20270;-80
2024/04/16 07:40:04;;;;;;;1999.90;999.90;;;9.10;84.50;;;;;;6431427;22;20271;-80
2024/04/16 07:42:30;;;;;;;1999.90;999.90;;;9.20;84.60;;;;;;6431551;22;20232;-80
2024/04/16 07:44:55;;;;;;;1999.90;999.90;;;9.20;84.60;;;;;;6430697;22;20635;-80
2024/04/16 07:47:21;;;;;;;1634.13;688.33;;;9.20;84.50;;;;;;6385911;22;20530;-80
2024/04/16 07:49:47;;;;;;;1999.90;999.90;;;9.20;84.60;;;;;;6431561;22;20309;-80
2024/04/16 07:52:13;;;;;;;1999.90;999.90;;;9.20;84.50;;;;;;6431306;22;20221;-80
2024/04/16 07:54:39;;;;;;;1708.27;698.47;;;9.20;84.50;;;;;;6388022;22;20242;-80
2024/04/16 07:57:05;;;;;;;1999.90;999.90;;;9.20;84.60;;;;;;6387142;22;20240;-80
2024/04/16 07:59:30;;;;;;;1999.90;999.90;;;9.20;84.60;;;;;;6431663;22;20228;-80
2024/04/16 08:01:56;;;;;;;1999.90;999.90;;;9.20;84.70;;;;;;6431472;22;20367;-80
2024/04/16 08:04:22;;;;;;;1999.90;999.90;;;9.10;84.70;;;;;;6433464;22;20226;-80
2024/04/16 08:06:48;;;;;;;1999.90;999.90;;;9.10;84.80;;;;;;6389122;22;20254;-80
2024/04/16 08:09:14;;;;;;;1999.90;999.90;;;9.10;84.90;;;;;;6389663;22;20323;-80
2024/04/16 08:11:40;;;;;;;1999.90;999.90;;;9.10;85.00;;;;;;6389343;22;20235;-80
2024/04/16 08:14:05;;;;;;;1999.90;999.90;;;9.10;85.00;;;;;;6433711;22;20220;-80
2024/04/16 08:16:31;;;;;;;1999.90;999.90;;;9.10;85.20;;;;;;6433288;22;20267;-80
2024/04/16 08:18:57;;;;;;;1999.90;999.90;;;9.10;85.30;;;;;;6434167;22;20274;-80
2024/04/16 08:21:22;;;;;;;1999.90;999.90;;;9.10;85.30;;;;;;6389513;22;20254;-80
2024/04/16 08:23:52;;;;;;;1999.90;999.90;;;9.10;85.30;;;;;;6389260;22;20262;-80
2024/04/16 08:26:18;;;;;;;1123.27;409.10;;;9.10;85.40;;;;;;6431231;22;20223;-80
2024/04/16 08:28:44;;;;;;;1999.90;999.90;;;9.20;85.40;;;;;;6389224;22;20270;-80
2024/04/16 08:31:10;;;;;;;1999.90;999.90;;;9.10;85.20;;;;;;6433332;22;20267;-80
2024/04/16 08:33:35;;;;;;;1620.67;699.20;;;9.10;85.30;;;;;;6389348;22;20567;-80
2024/04/16 08:36:01;;;;;;;1999.90;999.90;;;9.20;85.30;;;;;;6389312;22;20235;-80
2024/04/16 08:38:27;;;;;;;1999.90;999.90;;;9.20;85.20;;;;;;6387649;22;20287;-80
2024/04/16 08:40:52;;;;;;;1999.90;999.90;;;9.20;85.20;;;;;;6388240;22;20224;-79
2024/04/16 08:43:20;;;;;;;1999.90;999.90;;;9.20;85.30;;;;;;6387653;22;20235;-80
2024/04/16 08:45:48;;;;;;;1999.90;999.90;;;9.30;85.40;;;;;;6432685;22;20709;-80
2024/04/16 08:48:14;;;;;;;1999.90;999.90;;;9.30;85.40;;;;;;6394637;22;20743;-79
2024/04/16 08:50:42;;;;;;;1205.93;380.50;;;9.30;85.40;;;;;;6391096;22;20228;-79
2024/04/16 08:53:09;;;;;;;1999.90;999.90;;;9.30;85.50;;;;;;6388217;22;20231;-80
2024/04/16 08:55:36;;;;;;;1999.90;999.90;;;9.30;85.60;;;;;;6431422;22;20331;-80
2024/04/16 08:58:02;;;;;;;1999.90;999.90;;;9.40;85.60;;;;;;6386878;22;20257;-80
2024/04/16 09:00:28;;;;;;;1999.90;999.90;;;9.40;85.60;;;;;;6431717;22;20270;-80
2024/04/16 09:02:53;;;;;;;1999.90;999.90;;;9.50;85.50;;;;;;6388047;22;20964;-80
2024/04/16 09:05:19;;;;;;;1999.90;999.90;;;9.50;85.50;;;;;;6387839;22;20692;-79
2024/04/16 09:07:46;;;;;;;1999.90;999.90;;;9.50;85.60;;;;;;6387096;22;20232;-79
2024/04/16 09:10:22;;;;;;;1938.90;722.37;;;9.50;85.70;;;;;;6430621;22;20252;-79
2024/04/16 09:12:48;;;;;;;1999.90;999.90;;;9.50;85.90;;;;;;6388237;22;20228;-79
2024/04/16 09:15:15;;;;;;;1792.03;450.07;;;9.60;85.80;;;;;;6388895;22;20275;-80
2024/04/16 09:17:59;;;;;;;1999.90;999.90;;;9.70;86.10;;;;;;6396773;22;20264;-80
2024/04/16 09:20:26;;;;;;;1999.90;999.90;;;9.80;86.30;;;;;;6392930;22;20260;-83
2024/04/16 09:22:53;;;;;;;1999.90;999.90;;;10.20;86.30;;;;;;6389026;22;20536;-80
2024/04/16 09:25:22;;;;;;;1614.77;409.20;;;10.40;85.80;;;;;;6388131;22;20228;-80
2024/04/16 09:27:57;;;;;;;1178.70;382.93;;;10.60;85.50;;;;;;6430915;22;20233;-79
2024/04/16 09:30:23;;;;;;;1999.90;999.90;;;10.50;85.20;;;;;;6432056;22;20305;-80
2024/04/16 09:33:03;;;;;;;1999.90;999.90;;;10.60;85.20;;;;;;6432235;22;20571;-81
2024/04/16 09:35:31;;;;;;;1999.90;999.90;;;10.60;85.30;;;;;;6389041;22;20546;-80
2024/04/16 09:38:02;;;;;;;1999.90;999.90;;;10.80;85.30;;;;;;6431429;22;20225;-81
2024/04/16 09:40:31;;;;;;;1999.90;999.90;;;10.80;85.10;;;;;;6387829;22;20234;-80
2024/04/16 09:42:58;;;;;;;1999.90;999.90;;;10.80;84.90;;;;;;6430738;22;20273;-81
2024/04/16 09:45:27;;;;;;;1999.90;999.90;;;10.90;85.00;;;;;;6387140;22;20237;-81
2024/04/16 09:47:55;;;;;;;1999.90;999.90;;;11.00;85.10;;;;;;6429105;22;20309;-80
2024/04/16 09:50:21;;;;;;;1999.90;999.90;;;11.00;84.90;;;;;;6431625;22;20341;-80
2024/04/16 09:52:52;;;;;;;1999.90;999.90;;;10.90;84.50;;;;;;6431667;22;20260;-80
2024/04/16 09:55:19;;;;;;;1999.90;999.90;;;10.80;84.70;;;;;;6432719;22;20223;-81
2024/04/16 09:57:47;;;;;;;1999.90;999.90;;;10.80;84.70;;;;;;6388019;22;20259;-80
2024/04/16 10:00:15;;;;;;;1999.90;999.90;;;10.70;84.80;;;;;;6387541;22;20282;-81
2024/04/16 10:02:43;;;;;;;1999.90;999.90;;;10.70;85.00;;;;;;6387594;22;20234;-79
2024/04/16 10:05:14;;;;;;;1999.90;999.90;;;10.80;85.10;;;;;;6388218;22;20261;-80
2024/04/16 10:07:44;;;;;;;1672.73;434.00;;;10.90;85.20;;;;;;6432201;22;20258;-80
2024/04/16 10:10:10;;;;;;;1999.90;999.90;;;10.80;85.00;;;;;;6434296;22;20272;-81
2024/04/16 10:12:38;;;;;;;1999.90;999.90;;;10.80;85.10;;;;;;6390927;22;20281;-81
2024/04/16 10:15:07;;;;;;;1999.90;999.90;;;10.80;85.10;;;;;;6391165;22;20243;-80
2024/04/16 10:17:34;;;;;;;1999.90;999.90;;;10.80;85.10;;;;;;6434045;22;20672;-80
2024/04/16 10:20:15;;;;;;;1999.90;999.90;;;10.90;85.10;;;;;;6435051;22;20249;-80
2024/04/16 10:22:40;;;;;;;1999.90;999.90;;;10.80;85.20;;;;;;6391929;22;20260;-81
2024/04/16 10:25:06;;;;;;;1999.90;999.90;;;10.90;85.20;;;;;;6392967;22;20231;-80
2024/04/16 10:27:32;;;;;;;1999.90;999.90;;;10.80;85.20;;;;;;6393101;22;20612;-80
2024/04/16 10:30:13;;;;;;;1999.90;999.90;;;10.80;85.40;;;;;;6430900;22;20237;-81
2024/04/16 10:32:48;;;;;;;1999.90;999.90;;;10.70;85.50;;;;;;6386582;22;20320;-80
2024/04/16 10:35:16;;;;;;;1999.90;999.90;;;10.80;85.60;;;;;;6429928;22;20223;-80
2024/04/16 10:37:50;;;;;;;1999.90;999.90;;;10.90;85.60;;;;;;6429247;22;20263;-80
2024/04/16 10:40:26;;;;;;;1585.93;698.20;;;11.00;85.60;;;;;;6430187;22;20259;-81
2024/04/16 10:42:56;;;;;;;1999.90;999.90;;;11.10;85.70;;;;;;6430804;22;20688;-81
2024/04/16 10:45:22;;;;;;;1999.90;999.90;;;11.10;85.40;;;;;;6431927;22;20230;-81
2024/04/16 10:47:52;;;;;;;1999.90;999.90;;;11.10;85.30;;;;;;6431534;22;20235;-80
2024/04/16 10:50:18;;;;;;;1999.90;999.90;;;11.10;85.50;;;;;;6432589;22;20217;-82
2024/04/16 10:52:43;;;;;;;1999.90;999.90;;;11.20;85.40;;;;;;6386335;22;20252;-80
2024/04/16 10:55:09;;;;;;;1999.90;999.90;;;11.20;85.10;;;;;;6386661;22;20223;-81
2024/04/16 10:57:44;;;;;;;1999.90;999.90;;;11.30;85.10;;;;;;6429837;22;20283;-80
2024/04/16 11:00:10;;;;;;;1999.90;999.90;;;11.30;85.00;;;;;;6386563;22;20230;-79
2024/04/16 11:02:36;;;;;;;1999.90;999.90;;;11.40;84.80;;;;;;6430054;22;20227;-79
2024/04/16 11:05:02;;;;;;;1999.90;999.90;;;11.40;84.60;;;;;;6386981;22;20252;-80
2024/04/16 11:07:28;;;;;;;1999.90;999.90;;;11.40;84.70;;;;;;6386107;22;20234;-80
2024/04/16 11:09:57;;;;;;;1999.90;999.90;;;11.50;84.70;;;;;;6429503;22;20235;-80
2024/04/16 11:12:24;;;;;;;1999.90;999.90;;;11.50;84.60;;;;;;6428479;22;20611;-80
2024/04/16 11:14:51;;;;;;;1999.90;999.90;;;11.60;84.50;;;;;;6427933;22;20223;-81
2024/04/16 11:17:17;;;;;;;1999.90;999.90;;;11.70;84.40;;;;;;6426982;22;20274;-80
2024/04/16 11:19:44;;;;;;;1999.90;999.90;;;11.80;84.40;;;;;;6383444;22;20242;-82
2024/04/16 11:22:10;;;;;;;1999.90;999.90;;;12.30;84.80;;;;;;6383537;22;20231;-81
2024/04/16 11:24:36;;;;;;;1999.90;999.90;;;12.90;84.10;;;;;;6385326;22;20314;-81
2024/04/16 11:27:02;;;;;;;1999.90;999.90;;;13.50;83.30;;;;;;6429087;22;20322;-81
2024/04/16 11:29:28;;;;;;;1999.90;999.90;;;13.70;82.20;;;;;;6433684;22;20610;-81
2024/04/16 11:31:54;;;;;;;1999.90;999.90;;;13.60;81.70;;;;;;6428552;22;20216;-79
2024/04/16 11:34:23;;;;;;;1999.90;999.90;;;13.60;81.70;;;;;;6429866;22;20686;-81
2024/04/16 11:36:50;;;;;;;1999.90;999.90;;;13.50;81.40;;;;;;6427731;22;20299;-80
2024/04/16 11:39:16;;;;;;;1999.90;999.90;;;13.50;81.60;;;;;;6428258;22;20228;-81
2024/04/16 11:41:41;;;;;;;1999.90;999.90;;;13.70;81.50;;;;;;6384166;22;20246;-81
2024/04/16 11:44:07;;;;;;;1999.90;999.90;;;13.80;81.30;;;;;;6427974;22;20266;-80
2024/04/16 11:46:33;;;;;;;1999.90;999.90;;;13.80;81.00;;;;;;6425700;22;20250;-80
2024/04/16 11:48:59;;;;;;;1999.90;999.90;;;13.80;80.90;;;;;;6426187;22;20239;-81
2024/04/16 11:51:26;;;;;;;1999.90;999.90;;;13.80;80.60;;;;;;6426503;22;20330;-80
2024/04/16 11:53:52;;;;;;;1999.90;999.90;;;13.80;80.50;;;;;;6426491;22;20290;-81
2024/04/16 11:56:17;;;;;;;1999.90;999.90;;;13.70;80.20;;;;;;6425578;22;20215;-81
2024/04/16 11:58:43;;;;;;;1999.90;999.90;;;13.80;80.20;;;;;;6426964;22;20235;-81
2024/04/16 12:01:09;;;;;;;1999.90;999.90;;;13.80;79.80;;;;;;6426954;22;20268;-81
2024/04/16 12:03:35;;;;;;;1999.90;999.90;;;13.80;79.80;;;;;;6383088;22;20265;-81
2024/04/16 12:06:16;;;;;;;1999.90;999.90;;;14.00;79.90;;;;;;6425768;22;20225;-81